Andersonville, Virginia
Current Conditions -  °F | °C
As of 11:15 AM on Sunday 25 Jan 2015 (Local Time) from KFVX Reporting Station
Clear Clear  
Wind Chill:   Ceiling: Unl
Heat Index:   Visibility: 10mi
Dew Point:   Wind: 6mph
Humidity: 58%   Direction: 210°SSW
Pressure: 29.88"   Gusts: NA
Location:  37.47°N, 78.57°W
Report Text: KFVX 251615Z AUTO 21005KT 10SM CLR 09/01 A2988 RMK AO2 T00850006
Loading
Personal Weather Stations






























Interactive Weather Map New forecast layout! Learn more

10-Day Weather Forecast

Advertisements
Track Severe Weather on mobile